Main page
METAR-TAF:

METAR-TAF

Airports :

Islay, Scotland

Islay Airport

latitude: 55-40-55N, longitude: 006-15-24W, elevation: 16 m

Current weather observation

The report was made 33 minutes ago, at 17:20 UTC
Wind 6 kt from the Southeast
Temperature 10°C
Humidity 62%
Pressure 1013 hPa
Visibility 10 km or more

METAR: EGPI 281720Z AUTO 14006KT 9999 NCD 10/03 Q1013

Time: 18:53 (17:53 UTC)

Forecast

The report was made 3 hours and 56 minutes ago, at 13:57 UTC
Forecast valid from 28 at 15 UTC to 28 at 18 UTC
Wind 7 kt from the Southwest
Visibility 10 km or more
Scattered clouds at a height of 3000 ft
Becoming
from 28 at 15 UTC to 28 at 18 UTC
Wind 10 kt from the South/Southeast

TAF: EGPI 281357Z 2815/2818 23007KT 9999 SCT030 BECMG 2815/2818 15010KT

Weather observations and forecasts of more than 4000 airports (METAR and TAF reports).

The available stations are represented by yellow and red dots on the map.

Hover mouse over dot to see the name of the station.

Then click to see weather observations and forecasts.

To change the map : click on the green buttons with a black cross to zoom in, on the green button with a dash to zoom out, or on the green arrows for adjacent maps.


METAR-TAF: